createdAt,value
2022-10-25T00:04:37.725Z,29.53
2022-10-25T00:09:39.925Z,28.75
2022-10-25T00:14:42.061Z,29.40
2022-10-25T00:19:44.291Z,29.80
2022-10-25T00:24:46.379Z,30.30
2022-10-25T00:29:48.493Z,31.17
2022-10-25T00:34:50.598Z,28.05
2022-10-25T00:39:52.772Z,28.93
2022-10-25T00:45:01.852Z,28.08
2022-10-25T00:50:12.648Z,26.90
2022-10-25T00:55:18.664Z,26.30
2022-10-25T01:00:21.185Z,24.42
2022-10-25T01:05:23.739Z,24.80
2022-10-25T01:10:26.692Z,25.00
2022-10-25T01:15:36.731Z,24.70
2022-10-25T01:20:47.540Z,24.23
2022-10-25T01:25:49.524Z,24.00
2022-10-25T01:31:10.225Z,23.53
2022-10-25T01:36:15.216Z,23.55
2022-10-25T01:41:20.446Z,23.73
2022-10-25T01:46:45.434Z,23.63
2022-10-25T01:51:47.480Z,23.33
2022-10-25T01:56:57.097Z,21.87
2022-10-25T02:02:24.143Z,20.35
2022-10-25T02:07:37.905Z,20.50
2022-10-25T02:13:08.140Z,20.13
2022-10-25T02:18:17.504Z,18.25
2022-10-25T02:23:21.324Z,17.47
2022-10-25T02:28:26.923Z,17.33
2022-10-25T02:33:29.387Z,16.42
2022-10-25T02:38:31.555Z,15.70
2022-10-25T02:43:33.725Z,15.90
2022-10-25T02:48:36.788Z,15.63
2022-10-25T02:53:38.946Z,16.02
2022-10-25T02:58:42.693Z,15.30
2022-10-25T03:03:45.902Z,15.73
2022-10-25T03:08:48.178Z,15.40
2022-10-25T03:13:50.522Z,14.90
2022-10-25T03:18:52.599Z,14.68
2022-10-25T03:23:54.763Z,12.75
2022-10-25T03:28:56.882Z,11.93
2022-10-25T03:33:58.950Z,11.43
2022-10-25T03:39:01.057Z,11.50
2022-10-25T03:44:03.335Z,12.18
2022-10-25T03:49:05.431Z,13.18
2022-10-25T03:54:07.654Z,12.80
2022-10-25T03:59:09.727Z,12.65
2022-10-25T04:04:11.812Z,13.40
2022-10-25T04:09:14.468Z,13.60
2022-10-25T04:14:16.535Z,12.63
2022-10-25T04:19:18.606Z,12.20
2022-10-25T04:24:20.952Z,13.32
2022-10-25T04:29:23.395Z,12.20
2022-10-25T04:34:25.479Z,12.50
2022-10-25T04:39:27.622Z,12.60
2022-10-25T04:44:29.705Z,11.77
2022-10-25T04:49:31.815Z,11.90
2022-10-25T04:54:33.877Z,12.53
2022-10-25T04:59:35.948Z,12.35
2022-10-25T05:04:38.001Z,12.37
2022-10-25T05:09:42.670Z,12.20
2022-10-25T05:14:47.427Z,11.43
2022-10-25T05:19:49.473Z,11.43
2022-10-25T05:24:52.321Z,12.55
2022-10-25T05:29:54.500Z,12.27
2022-10-25T05:34:56.630Z,11.17
2022-10-25T05:39:58.706Z,11.12
2022-10-25T05:45:00.753Z,11.07
2022-10-25T05:50:02.989Z,9.95
2022-10-25T05:55:05.473Z,9.68
2022-10-25T06:00:07.867Z,9.80
2022-10-25T06:05:09.972Z,10.80
2022-10-25T06:10:12.051Z,11.40
2022-10-25T06:15:14.174Z,12.93
2022-10-25T06:20:16.346Z,14.32
2022-10-25T06:25:19.555Z,16.83
2022-10-25T06:30:21.645Z,16.05
2022-10-25T06:35:23.810Z,16.93
2022-10-25T06:40:25.968Z,17.70
2022-10-25T06:45:35.696Z,16.60
2022-10-25T06:50:37.795Z,17.47
2022-10-25T06:55:39.884Z,16.27
2022-10-25T07:00:43.742Z,15.87
2022-10-25T07:05:48.155Z,14.93
2022-10-25T07:10:55.005Z,14.00
2022-10-25T07:16:08.568Z,12.93
2022-10-25T07:21:20.222Z,12.57
2022-10-25T07:26:23.780Z,11.63
2022-10-25T07:31:31.606Z,11.65
2022-10-25T07:36:34.477Z,10.57
2022-10-25T07:41:36.648Z,10.63
2022-10-25T07:46:38.758Z,9.70
2022-10-25T07:51:40.969Z,9.43
2022-10-25T07:56:43.044Z,7.10
2022-10-25T08:01:45.172Z,4.50
2022-10-25T08:06:47.284Z,5.20
2022-10-25T08:11:50.657Z,6.50
2022-10-25T08:16:52.783Z,8.53
2022-10-25T08:21:55.171Z,7.62
2022-10-25T08:26:57.258Z,8.85
2022-10-25T08:31:59.878Z,8.53
2022-10-25T08:37:01.972Z,9.52
2022-10-25T08:42:04.896Z,9.50
2022-10-25T08:47:27.262Z,10.45
2022-10-25T08:52:43.751Z,10.25
2022-10-25T08:57:47.962Z,9.47
2022-10-25T09:02:58.776Z,10.27
2022-10-25T09:08:28.253Z,9.40
2022-10-25T09:13:42.974Z,9.57
2022-10-25T09:18:57.101Z,9.63
2022-10-25T09:24:02.577Z,9.67
2022-10-25T09:29:17.194Z,9.30
2022-10-25T09:34:22.920Z,9.20
2022-10-25T09:39:40.519Z,9.60
2022-10-25T09:44:49.946Z,9.60
2022-10-25T09:49:59.453Z,9.70
2022-10-25T09:55:13.876Z,9.60
2022-10-25T10:00:16.416Z,9.80
2022-10-25T10:05:20.884Z,9.60
2022-10-25T10:10:27.898Z,9.98
2022-10-25T10:15:38.741Z,8.97
2022-10-25T10:20:55.270Z,9.80
2022-10-25T10:26:01.600Z,8.70
2022-10-25T10:31:07.212Z,8.40
2022-10-25T10:36:31.426Z,8.63
2022-10-25T10:41:34.826Z,8.77
2022-10-25T10:46:43.543Z,8.88
2022-10-25T10:51:46.348Z,8.40
2022-10-25T10:57:06.356Z,8.82
2022-10-25T11:02:30.466Z,8.77
2022-10-25T11:07:35.952Z,7.87
2022-10-25T11:12:41.276Z,7.05
2022-10-25T11:17:57.467Z,6.67
2022-10-25T11:23:11.231Z,7.05
2022-10-25T11:28:48.761Z,7.12
2022-10-25T11:34:25.800Z,6.70
2022-10-25T11:39:48.511Z,7.85
2022-10-25T11:45:01.418Z,7.90
2022-10-25T11:50:24.875Z,7.53
2022-10-25T12:01:32.683Z,7.27
2022-10-25T12:06:49.423Z,8.13
2022-10-25T12:12:01.438Z,7.20
2022-10-25T12:17:07.659Z,6.35
2022-10-25T12:22:20.301Z,5.72
2022-10-25T12:27:27.278Z,5.40
2022-10-25T12:32:38.135Z,5.25
2022-10-25T12:37:48.973Z,5.73
2022-10-25T12:42:54.400Z,5.62
2022-10-25T12:48:43.862Z,5.18
2022-10-25T13:00:01.407Z,4.90
2022-10-25T13:05:29.460Z,6.00
2022-10-25T13:10:39.026Z,4.57
2022-10-25T13:15:50.312Z,5.35
2022-10-25T13:20:55.661Z,4.73
2022-10-25T13:26:25.968Z,4.10
2022-10-25T13:31:34.485Z,5.57
2022-10-25T14:00:12.907Z,4.23
2022-10-25T14:11:37.175Z,4.18
2022-10-25T14:27:48.817Z,4.20
2022-10-25T14:44:57.939Z,3.97
2022-10-25T15:30:43.195Z,2.73
2022-10-25T15:35:49.678Z,2.75
2022-10-25T15:40:52.355Z,3.77
2022-10-25T15:45:55.483Z,3.35
2022-10-25T15:51:01.984Z,3.12
2022-10-25T16:02:00.404Z,2.70
2022-10-25T16:07:16.462Z,3.20
2022-10-25T16:12:22.477Z,3.00
2022-10-25T16:17:24.600Z,3.10
2022-10-25T16:22:26.620Z,3.00
2022-10-25T16:27:28.705Z,3.30
2022-10-25T16:32:30.745Z,3.00
2022-10-25T16:37:32.826Z,2.80
2022-10-25T16:42:38.820Z,2.30
2022-10-25T16:47:41.006Z,2.83
2022-10-25T16:52:43.211Z,2.70
2022-10-25T16:57:45.824Z,2.97
2022-10-25T17:02:49.827Z,5.00
2022-10-25T17:07:52.360Z,4.10
2022-10-25T17:13:01.629Z,4.63
2022-10-25T17:18:03.707Z,4.60
2022-10-25T17:23:05.764Z,4.10
2022-10-25T17:28:08.537Z,4.25
2022-10-25T17:33:10.557Z,4.22
2022-10-25T17:38:12.817Z,4.50
2022-10-25T17:43:16.066Z,4.80
2022-10-25T17:48:18.547Z,5.10
2022-10-25T17:53:20.581Z,5.70
2022-10-25T17:58:25.034Z,5.07
2022-10-25T18:03:34.123Z,4.70
2022-10-25T18:08:39.404Z,5.15
2022-10-25T18:14:16.115Z,4.97
2022-10-25T18:19:38.779Z,5.37
2022-10-25T18:24:44.330Z,5.22
2022-10-25T18:29:49.049Z,4.80
2022-10-25T18:34:53.367Z,4.85
2022-10-25T18:39:57.575Z,6.27
2022-10-25T18:45:01.343Z,7.18
2022-10-25T18:50:06.064Z,7.68
2022-10-25T19:00:31.834Z,8.07
2022-10-25T19:05:40.172Z,8.17
2022-10-25T19:10:47.558Z,8.20
2022-10-25T19:15:56.598Z,8.45
2022-10-25T19:21:18.709Z,8.20
2022-10-25T19:26:21.671Z,7.72
2022-10-25T19:31:23.826Z,8.03
2022-10-25T19:36:26.490Z,8.68
2022-10-25T19:41:28.716Z,9.48
2022-10-25T19:46:32.250Z,9.07
2022-10-25T19:51:34.662Z,6.62
2022-10-25T19:56:39.564Z,8.63
2022-10-25T20:01:47.530Z,7.85
2022-10-25T20:06:49.849Z,8.43
2022-10-25T20:11:52.089Z,7.12
2022-10-25T20:16:58.924Z,7.12
2022-10-25T20:22:03.686Z,7.80
2022-10-25T20:27:06.751Z,7.68
2022-10-25T20:32:10.279Z,7.25
2022-10-25T20:37:12.372Z,7.47
2022-10-25T20:42:16.396Z,8.80
2022-10-25T20:47:18.427Z,8.73
2022-10-25T20:52:21.512Z,8.55
2022-10-25T20:57:23.683Z,8.65
2022-10-25T21:02:26.131Z,8.18
2022-10-25T21:07:32.179Z,7.80
2022-10-25T21:12:34.722Z,8.70
2022-10-25T21:17:37.030Z,8.48
2022-10-25T21:22:41.143Z,7.62
2022-10-25T21:27:43.414Z,7.60
2022-10-25T21:32:45.491Z,8.15
2022-10-25T21:37:49.249Z,8.70
2022-10-25T21:42:51.550Z,7.05
2022-10-25T21:47:53.606Z,6.80
2022-10-25T21:52:55.899Z,7.43
2022-10-25T21:57:58.537Z,6.95
2022-10-25T22:03:00.830Z,7.60
2022-10-25T22:08:02.958Z,7.40
2022-10-25T22:13:04.982Z,7.55
2022-10-25T22:18:07.220Z,8.17
2022-10-25T22:23:09.219Z,7.53
2022-10-25T22:28:11.862Z,6.17
2022-10-25T22:33:14.343Z,5.95
2022-10-25T22:38:16.517Z,5.53
2022-10-25T22:43:19.385Z,6.23
2022-10-25T22:48:22.460Z,5.65
2022-10-25T22:53:24.747Z,4.60
2022-10-25T22:58:29.636Z,5.50
2022-10-25T23:03:36.944Z,6.43
2022-10-25T23:08:39.412Z,6.43
2022-10-25T23:13:42.223Z,5.75
2022-10-25T23:18:45.374Z,5.03
2022-10-25T23:23:47.673Z,5.47
2022-10-25T23:28:50.304Z,5.10
2022-10-25T23:33:54.607Z,5.70
2022-10-25T23:38:57.843Z,4.95
2022-10-25T23:43:59.864Z,5.20
2022-10-25T23:49:01.937Z,4.90
2022-10-25T23:54:04.230Z,5.00
2022-10-25T23:59:06.305Z,5.40
